Flight Track Log - Related Links

Times and Time Zones

All times are in EDT time to prevent confusion due to time zone crossing. See the SWA482 flight status page for this flight to view local times or setup timezone preferences in your user account.

Time Position Orientation Groundspeed Altitude Reporting Facility
EDT Latitude Longitude Course Direction KTS MPH feet Rate Location/Type
Wed 09:15:49 PM 33.4333 -112.0667 269° West 176 203 2,900  Level Phoenix TRACON
Wed 09:16:49 PM 33.4333 -112.1333 270° West 224 258 5,600 2,341 Climbing Phoenix TRACON
Wed 09:17:11 PM 33.4350 -112.1544 275° West 210 242 6,100 2,429 Climbing Albuquerque Center
Wed 09:18:13 PM 33.4825 -112.1906 328° Northwest 261 300 9,000 2,634 Climbing Albuquerque Center
Wed 09:19:14 PM 33.5131 -112.1133 65° Northeast 266 306 11,500 2,439 Climbing Albuquerque Center
Wed 09:20:16 PM 33.5400 -111.9856 76° East 327 376 14,000 2,780 Climbing Albuquerque Center
Wed 09:21:17 PM 33.5644 -111.8694 76° East 357 411 17,200 3,000 Climbing Albuquerque Center
Wed 09:22:18 PM 33.5906 -111.7472 76° East 374 430 20,100 2,634 Climbing Albuquerque Center
Wed 09:23:20 PM 33.6167 -111.6194 76° East 392 451 22,600 2,244 Climbing Albuquerque Center
Wed 09:24:21 PM 33.6447 -111.4822 76° East 416 479 24,700 2,000 Climbing Albuquerque Center
Wed 09:25:23 PM 33.6819 -111.3422 72° East 439 505 26,700 2,098 Climbing Albuquerque Center
Wed 09:26:24 PM 33.7328 -111.1672 71° East 460 529 29,000 1,967 Climbing Albuquerque Center
Wed 09:27:25 PM 33.7750 -111.0153 71° East 476 548 30,700 1,512 Climbing Albuquerque Center
Wed 09:28:27 PM 33.8183 -110.8622 71° East 481 554 32,100 1,366 Climbing Albuquerque Center
Wed 09:29:28 PM 33.8622 -110.7014 72° East 493 567 33,500 1,415 Climbing Albuquerque Center
Wed 09:30:30 PM 33.9069 -110.5408 71° East 502 578 35,000 732 Climbing Albuquerque Center
Wed 09:31:31 PM 33.9497 -110.3831 72° East 503 579 35,000  Level Albuquerque Center
Wed 09:32:33 PM 33.9917 -110.2269 72° East 498 573 35,000  Level Albuquerque Center
Wed 09:33:34 PM 34.0439 -110.0381 72° East 500 575 35,000  Level Albuquerque Center
Wed 09:34:36 PM 34.0839 -109.8864 72° East 499 574 35,000  Level Albuquerque Center
Wed 09:35:37 PM 34.1317 -109.7086 72° East 499 574 35,000  Level Albuquerque Center
Wed 09:36:38 PM 34.1722 -109.5569 72° East 499 574 35,000  Level Albuquerque Center
Wed 09:37:40 PM 34.2122 -109.4039 72° East 499 574 35,000  Level Albuquerque Center
Wed 09:38:41 PM 34.2542 -109.2461 72° East 499 574 35,000  Level Albuquerque Center
Wed 09:39:43 PM 34.2994 -109.0758 72° East 496 571 35,000  Level Albuquerque Center
Wed 09:40:44 PM 34.3450 -108.8992 73° East 494 568 35,000  Level Albuquerque Center
Wed 09:41:46 PM 34.3850 -108.7475 72° East 495 570 35,000  Level Albuquerque Center
Wed 09:42:47 PM 34.4308 -108.5672 73° East 499 574 35,000 -537 Level Albuquerque Center
Wed 09:43:49 PM 34.4728 -108.4100 72° East 500 575 33,900 -1,951 Descending Albuquerque Center
Wed 09:44:50 PM 34.5128 -108.2475 73° East 501 577 31,000 -2,732 Descending Albuquerque Center
Wed 09:45:52 PM 34.5533 -108.0847 73° East 505 581 28,300 -2,439 Descending Albuquerque Center
Wed 09:46:53 PM 34.5933 -107.9297 73° East 491 565 26,000 -2,049 Descending Albuquerque Center
Wed 09:47:55 PM 34.6325 -107.7803 72° East 473 544 24,100 -2,000 Descending Albuquerque Center
Wed 09:48:38 PM 34.6769 -107.6772 62° Northeast 436 502 22,500 -2,066 Descending Albuquerque Center
Wed 09:48:56 PM 34.6897 -107.6517 59° Northeast 443 510 22,000 -2,164 Descending Albuquerque Center
Wed 09:49:39 PM 34.7319 -107.5475 64° Northeast 425 489 20,300 -1,967 Descending Albuquerque Center
Wed 09:49:57 PM 34.7447 -107.5264 54° Northeast 426 490 20,000 -1,909 Descending Albuquerque Center
Wed 09:50:45 PM 34.7917 -107.4092 64° Northeast 396 456 18,200 -1,927 Descending Albuquerque Center
Wed 09:51:46 PM 34.8428 -107.2956 61° Northeast 384 442 16,500 -1,388 Descending Albuquerque Center
Wed 09:52:46 PM 34.8861 -107.1867 64° Northeast 356 410 15,400 -1,105 Descending Albuquerque Center
Wed 09:53:02 PM 34.8958 -107.1633 63° Northeast 362 417 15,100 -1,377 Descending Albuquerque Center
Wed 09:53:47 PM 34.9081 -107.0775 80° East 326 375 14,000 -1,475 Descending Albuquerque Center
Wed 09:54:03 PM 34.9108 -107.0525 82° East 341 392 13,600 -1,462 Descending Albuquerque Center
Wed 09:55:05 PM 34.9239 -106.9436 82° East 333 383 12,100 -1,487 Descending Albuquerque Center
Wed 09:56:00 PM 34.9369 -106.8372 81° East 317 365 10,700 -1,036 Descending Albuquerque Center
Wed 09:56:55 PM 34.9489 -106.7461 81° East 288 331 10,200 -783 Descending Albuquerque Center
Wed 09:57:55 PM 34.9550 -106.6592 85° East 254 292 9,200 -893 Descending Albuquerque Center
Wed 09:58:56 PM 34.9644 -106.5789 82° East 231 266 8,400 -868 Descending Albuquerque Center
Wed 09:59:11 PM 34.9650 -106.5567 88° East 258 297 8,100 -1,254 Descending Albuquerque Center
Wed 10:00:03 PM 35.0017 -106.5228 37° Northeast 200 230 7,000 -1,082 Descending Albuquerque Center
Wed 10:01:13 PM 35.0425 -106.5419 339° North 188 216 5,900 -773 Descending Albuquerque Center
Wed 10:02:15 PM 35.0453 -106.5933 274° West 161 185 5,300 -581 Descending Albuquerque Center

Login

Don't have an account? Register now (free) for customized features, flight alerts, and more!